createdAt,value
2018-01-19T00:05:30.964Z,86.60
2018-01-19T00:15:33.245Z,85.70
2018-01-19T00:25:34.893Z,85.60
2018-01-19T00:35:36.442Z,86.20
2018-01-19T00:45:37.966Z,84.60
2018-01-19T00:55:39.469Z,84.40
2018-01-19T01:05:41.724Z,83.30
2018-01-19T01:15:43.220Z,83.30
2018-01-19T01:25:44.793Z,82.70
2018-01-19T01:35:47.059Z,81.70
2018-01-19T01:45:48.555Z,81.70
2018-01-19T01:55:50.194Z,81.60
2018-01-19T02:05:51.686Z,80.90
2018-01-19T02:15:53.196Z,80.10
2018-01-19T02:25:55.474Z,79.90
2018-01-19T02:36:04.129Z,79.20
2018-01-19T02:46:05.688Z,78.90
2018-01-19T02:56:08.101Z,78.70
2018-01-19T03:06:10.385Z,79.20
2018-01-19T03:16:11.944Z,79.10
2018-01-19T03:26:13.487Z,79.50
2018-01-19T03:36:15.046Z,78.40
2018-01-19T03:46:16.628Z,77.40
2018-01-19T03:56:18.929Z,74.50
2018-01-19T04:06:20.460Z,74.50
2018-01-19T04:16:22.016Z,74.00
2018-01-19T04:26:23.545Z,72.90
2018-01-19T04:36:25.823Z,73.40
2018-01-19T04:46:27.579Z,73.30
2018-01-19T04:56:29.340Z,74.10
2018-01-19T05:06:30.878Z,73.90
2018-01-19T05:16:32.381Z,73.90
2018-01-19T05:26:33.953Z,74.80
2018-01-19T05:36:35.475Z,74.60
2018-01-19T05:46:37.137Z,73.70
2018-01-19T05:56:38.952Z,74.00
2018-01-19T06:06:40.473Z,73.70
2018-01-19T06:16:42.000Z,74.30
2018-01-19T06:26:43.508Z,76.30
2018-01-19T06:36:45.038Z,78.70
2018-01-19T06:46:46.609Z,78.30
2018-01-19T06:56:48.220Z,78.70
2018-01-19T07:06:56.764Z,79.30
2018-01-19T07:16:58.361Z,80.10
2018-01-19T07:26:59.893Z,81.20
2018-01-19T07:37:01.485Z,80.10
2018-01-19T07:47:03.054Z,80.40
2018-01-19T07:57:04.738Z,79.50
2018-01-19T08:07:07.033Z,77.80
2018-01-19T08:17:09.625Z,77.80
2018-01-19T08:27:11.244Z,78.10
2018-01-19T08:37:12.792Z,79.60
2018-01-19T08:47:15.532Z,72.70
2018-01-19T08:57:17.067Z,72.70
2018-01-19T09:07:18.640Z,72.20
2018-01-19T09:17:20.197Z,72.40
2018-01-19T09:27:21.756Z,71.00
2018-01-19T09:37:23.264Z,69.70
2018-01-19T09:47:24.832Z,67.30
2018-01-19T09:57:26.373Z,62.40
2018-01-19T10:07:27.949Z,61.50
2018-01-19T10:17:29.453Z,62.10
2018-01-19T10:27:30.973Z,61.50
2018-01-19T10:37:32.492Z,61.20
2018-01-19T10:47:34.090Z,58.50
2018-01-19T10:57:35.783Z,57.80
2018-01-19T11:07:37.333Z,57.30
2018-01-19T11:17:38.852Z,55.60
2018-01-19T11:27:40.409Z,56.00
2018-01-19T11:37:42.616Z,54.50
2018-01-19T11:47:44.883Z,55.70
2018-01-19T11:57:46.444Z,54.80
2018-01-19T12:07:48.082Z,54.60
2018-01-19T12:17:49.757Z,54.70
2018-01-19T12:27:51.301Z,51.80
2018-01-19T12:37:53.006Z,54.20
2018-01-19T12:47:54.564Z,56.30
2018-01-19T12:57:56.118Z,52.00
2018-01-19T13:07:57.688Z,55.20
2018-01-19T13:17:59.383Z,55.30
2018-01-19T13:28:00.932Z,53.90
2018-01-19T13:38:03.318Z,54.50
2018-01-19T13:48:09.868Z,54.50
2018-01-19T13:58:11.493Z,55.40
2018-01-19T14:08:13.832Z,51.60
2018-01-19T14:18:15.401Z,51.50
2018-01-19T14:28:17.644Z,52.60
2018-01-19T14:38:19.575Z,52.60
2018-01-19T14:48:21.198Z,52.70
2018-01-19T14:58:22.792Z,52.70
2018-01-19T15:08:24.354Z,53.70
2018-01-19T15:18:25.885Z,56.40
2018-01-19T15:28:27.406Z,57.40
2018-01-19T15:38:29.585Z,60.40
2018-01-19T15:48:31.361Z,64.30
2018-01-19T15:58:32.909Z,65.30
2018-01-19T16:08:34.416Z,64.80
2018-01-19T16:18:35.967Z,66.40
2018-01-19T16:28:37.591Z,68.00
2018-01-19T16:38:39.045Z,69.20
2018-01-19T16:48:41.289Z,70.00
2018-01-19T16:58:42.919Z,69.80
2018-01-19T17:08:44.443Z,71.10
2018-01-19T17:18:45.999Z,71.40
2018-01-19T17:28:49.007Z,72.20
2018-01-19T17:38:50.554Z,72.20
2018-01-19T17:48:53.375Z,72.80
2018-01-19T17:58:54.931Z,74.10
2018-01-19T18:08:57.363Z,74.10
2018-01-19T18:18:58.951Z,74.00
2018-01-19T18:29:08.193Z,75.10
2018-01-19T18:39:09.789Z,75.10
2018-01-19T18:49:11.319Z,78.50
2018-01-19T18:59:12.994Z,78.20
2018-01-19T19:09:14.443Z,80.10
2018-01-19T19:19:15.916Z,80.40
2018-01-19T19:29:17.602Z,81.80
2018-01-19T19:39:19.282Z,83.90
2018-01-19T19:49:20.839Z,82.80
2018-01-19T19:59:23.380Z,82.10
2018-01-19T20:09:25.077Z,82.00
2018-01-19T20:19:26.947Z,82.40
2018-01-19T20:29:28.573Z,82.50
2018-01-19T20:39:32.004Z,82.60
2018-01-19T20:49:34.261Z,82.60
2018-01-19T20:59:36.167Z,82.40
2018-01-19T21:09:37.761Z,82.60
2018-01-19T21:19:39.288Z,82.60
2018-01-19T21:29:40.852Z,82.80
2018-01-19T21:39:42.406Z,87.20
2018-01-19T21:49:43.932Z,84.20
2018-01-19T21:59:45.483Z,82.40
2018-01-19T22:09:47.066Z,83.10
2018-01-19T22:19:48.676Z,83.90
2018-01-19T22:29:50.234Z,83.80
2018-01-19T22:39:52.816Z,85.70
2018-01-19T22:49:54.410Z,85.20
2018-01-19T22:59:55.953Z,85.70
2018-01-19T23:09:57.627Z,85.70
2018-01-19T23:19:59.196Z,86.20
2018-01-19T23:30:00.827Z,86.00
2018-01-19T23:40:02.381Z,84.40
2018-01-19T23:50:04.019Z,84.70
